Time;durP1;ratioP1;P1;durP2;ratioP2;P2;SDS_P1;SDS_P2;PMS_P1;PMS_P2;Temp;Humidity;BMP_temperature;BMP_pressure;BME280_temperature;BME280_humidity;BME280_pressure;Samples;Min_cycle;Max_cycle;Signal;HPM_P1;HPM_P2
2023/09/19 00:02:17;;;;;;;2.53;1.40;;;;;;;17.80;100.00;99849.88;4965460;28;20228;-77
2023/09/19 00:04:42;;;;;;;1.50;0.93;;;;;;;17.80;100.00;99859.47;4961163;28;20407;-77
2023/09/19 00:07:09;;;;;;;1.40;0.90;;;;;;;17.80;100.00;99857.72;4972018;28;20275;-79
2023/09/19 00:09:37;;;;;;;1.27;1.10;;;;;;;17.83;100.00;99860.22;4963723;28;20289;-78
2023/09/19 00:12:06;;;;;;;1.97;0.90;;;;;;;17.79;100.00;99863.00;4964752;28;20424;-79
2023/09/19 00:14:36;;;;;;;1.47;0.97;;;;;;;17.80;100.00;99867.31;4978901;28;20202;-79
2023/09/19 00:17:08;;;;;;;1.77;1.20;;;;;;;17.79;100.00;99865.63;4989624;28;20192;-78
2023/09/19 00:19:37;;;;;;;1.33;1.20;;;;;;;17.78;100.00;99866.53;4969302;28;20221;-77
2023/09/19 00:22:04;;;;;;;3.03;1.00;;;;;;;17.73;100.00;99865.91;4970619;28;20196;-78
2023/09/19 00:24:29;;;;;;;1.60;0.90;;;;;;;17.69;100.00;99865.22;4963142;28;20187;-77
2023/09/19 00:26:55;;;;;;;2.70;1.30;;;;;;;17.66;100.00;99855.72;4967460;28;21001;-78
2023/09/19 00:29:21;;;;;;;1.33;1.20;;;;;;;17.63;100.00;99862.88;4960196;28;20693;-78
2023/09/19 00:31:46;;;;;;;2.03;1.30;;;;;;;17.58;100.00;99868.31;4958917;28;20197;-80
2023/09/19 00:34:11;;;;;;;2.33;1.30;;;;;;;17.56;100.00;99859.69;4961671;28;20268;-78
2023/09/19 00:36:40;;;;;;;1.47;1.00;;;;;;;17.53;100.00;99859.81;4965920;28;20704;-78
2023/09/19 00:39:08;;;;;;;1.23;0.90;;;;;;;17.50;100.00;99866.03;4963871;28;20580;-77
2023/09/19 00:41:35;;;;;;;1.27;1.00;;;;;;;17.49;100.00;99866.09;4970635;28;20232;-77
2023/09/19 00:44:01;;;;;;;1.90;1.00;;;;;;;17.46;100.00;99861.03;4963880;28;20202;-77
2023/09/19 00:46:27;;;;;;;1.13;0.80;;;;;;;17.46;100.00;99863.63;4960446;28;20938;-79
2023/09/19 00:48:52;;;;;;;1.80;1.10;;;;;;;17.44;100.00;99870.69;4977156;28;20197;-76
2023/09/19 00:51:20;;;;;;;1.03;0.90;;;;;;;17.44;100.00;99873.31;4964762;28;20195;-78
2023/09/19 00:53:47;;;;;;;1.17;0.90;;;;;;;17.43;100.00;99882.06;4966408;28;20187;-78
2023/09/19 00:56:12;;;;;;;2.63;1.20;;;;;;;17.43;100.00;99877.69;4962157;28;20211;-77
2023/09/19 00:58:38;;;;;;;1.50;0.90;;;;;;;17.45;100.00;99877.63;4962952;28;20182;-77
2023/09/19 01:01:06;;;;;;;0.90;0.80;;;;;;;17.46;100.00;99881.94;4959917;28;20288;-78
2023/09/19 01:03:33;;;;;;;3.83;1.20;;;;;;;17.45;100.00;99878.47;4964105;28;20216;-79
2023/09/19 01:06:00;;;;;;;1.50;0.93;;;;;;;17.44;100.00;99889.00;4962401;28;20213;-77
2023/09/19 01:08:29;;;;;;;0.83;0.80;;;;;;;17.43;100.00;99896.00;4960064;28;20206;-78
2023/09/19 01:11:03;;;;;;;1.07;0.93;;;;;;;17.44;100.00;99889.00;4963313;28;20275;-77
2023/09/19 01:13:51;;;;;;;2.83;1.30;;;;;;;17.46;100.00;99881.94;4960755;28;20236;-76
2023/09/19 01:16:35;;;;;;;1.43;0.90;;;;;;;17.54;100.00;99889.47;4960623;28;20653;-77
2023/09/19 01:19:43;;;;;;;1.63;1.00;;;;;;;17.56;100.00;99895.44;4964454;28;20195;-78
2023/09/19 01:22:28;;;;;;;1.57;0.80;;;;;;;17.57;100.00;99900.63;4972388;28;20196;-76
2023/09/19 01:25:30;;;;;;;0.90;0.70;;;;;;;17.63;100.00;99902.13;4956036;28;20243;-76
2023/09/19 01:28:17;;;;;;;1.50;0.70;;;;;;;17.68;100.00;99918.47;4960275;28;20347;-77
2023/09/19 01:30:47;;;;;;;0.80;0.80;;;;;;;17.74;100.00;99922.59;4963249;28;20197;-77
2023/09/19 01:33:12;;;;;;;1.43;0.77;;;;;;;17.83;100.00;99920.41;4962197;28;20186;-76
2023/09/19 01:35:39;;;;;;;1.47;0.83;;;;;;;17.84;100.00;99923.84;4964094;28;20801;-76
2023/09/19 01:38:06;;;;;;;1.50;0.90;;;;;;;17.86;100.00;99922.03;4959341;28;20193;-79
2023/09/19 01:40:40;;;;;;;1.50;0.70;;;;;;;17.90;100.00;99917.50;4953275;28;20891;-77
2023/09/19 01:43:14;;;;;;;3.27;1.17;;;;;;;17.92;100.00;99919.09;4960203;28;20191;-77
2023/09/19 01:45:48;;;;;;;2.10;0.90;;;;;;;17.91;100.00;99927.03;4960709;28;20214;-77
2023/09/19 01:48:27;;;;;;;0.80;0.80;;;;;;;17.88;100.00;99925.44;4958177;28;20281;-76
2023/09/19 01:51:05;;;;;;;1.47;1.13;;;;;;;17.89;100.00;99918.41;4962637;28;20193;-76
2023/09/19 01:54:03;;;;;;;1.13;0.70;;;;;;;17.88;100.00;99924.56;4960214;28;20287;-77
2023/09/19 01:56:36;;;;;;;0.80;0.80;;;;;;;17.88;100.00;99933.28;4959404;28;20801;-77
2023/09/19 01:59:10;;;;;;;1.13;0.80;;;;;;;17.90;100.00;99933.19;4958472;28;20197;-78
2023/09/19 02:01:37;;;;;;;1.73;0.90;;;;;;;17.91;100.00;99935.75;4959358;28;20228;-78
2023/09/19 02:04:04;;;;;;;1.30;1.07;;;;;;;17.94;100.00;99938.22;4962980;28;20214;-77
2023/09/19 02:06:29;;;;;;;2.10;1.00;;;;;;;17.96;100.00;99932.94;4982766;28;20241;-78
2023/09/19 02:08:55;;;;;;;2.43;1.03;;;;;;;17.97;100.00;99932.88;4991658;28;20200;-77
2023/09/19 02:11:20;;;;;;;1.90;0.90;;;;;;;17.97;100.00;99938.13;4961977;28;20679;-77
2023/09/19 02:13:46;;;;;;;1.57;0.90;;;;;;;17.98;100.00;99936.38;4958491;28;20198;-77
2023/09/19 02:16:12;;;;;;;1.00;0.80;;;;;;;18.00;100.00;99929.25;4963805;28;20212;-77
2023/09/19 02:18:39;;;;;;;1.03;0.93;;;;;;;18.01;100.00;99937.97;4962275;28;20220;-77
2023/09/19 02:21:06;;;;;;;1.00;0.80;;;;;;;18.02;100.00;99942.31;4963283;28;20709;-78
2023/09/19 02:23:33;;;;;;;1.90;1.10;;;;;;;18.02;100.00;99948.38;4957310;28;20201;-78
2023/09/19 02:26:00;;;;;;;1.67;1.00;;;;;;;18.03;100.00;99957.09;4962755;28;20214;-78
2023/09/19 02:28:29;;;;;;;1.80;1.10;;;;;;;18.04;100.00;99958.81;4958181;28;20197;-78
2023/09/19 02:30:55;;;;;;;1.93;1.30;;;;;;;18.04;100.00;99954.41;4961175;28;20197;-78
2023/09/19 02:33:21;;;;;;;1.33;0.83;;;;;;;18.04;100.00;99958.81;4959325;28;20587;-77
2023/09/19 02:35:46;;;;;;;4.13;1.10;;;;;;;18.02;100.00;99963.25;4964695;28;20215;-78
2023/09/19 02:38:12;;;;;;;0.80;0.80;;;;;;;18.01;100.00;99964.16;4960519;28;20994;-78
2023/09/19 02:40:37;;;;;;;1.40;0.87;;;;;;;18.01;100.00;99951.91;4967188;28;20212;-77
2023/09/19 02:43:04;;;;;;;2.07;1.07;;;;;;;18.02;100.00;99961.47;4955799;28;20186;-76
2023/09/19 02:45:30;;;;;;;0.70;0.70;;;;;;;18.02;100.00;99965.88;4959081;28;20205;-76
2023/09/19 02:47:56;;;;;;;1.03;0.80;;;;;;;18.03;100.00;99970.19;4960528;28;20185;-77
2023/09/19 02:50:21;;;;;;;1.30;0.90;;;;;;;18.05;100.00;99976.22;4965428;28;20240;-77
2023/09/19 02:52:48;;;;;;;1.90;1.07;;;;;;;18.04;100.00;99977.97;4962128;28;20191;-78
2023/09/19 02:55:17;;;;;;;1.20;1.10;;;;;;;18.06;100.00;99991.00;4959911;28;20208;-76
2023/09/19 02:57:49;;;;;;;1.90;1.00;;;;;;;18.07;100.00;99990.09;4959279;28;20240;-78
2023/09/19 03:00:17;;;;;;;2.93;0.93;;;;;;;18.09;100.00;99996.94;4962158;28;20304;-77
2023/09/19 03:02:42;;;;;;;1.93;1.00;;;;;;;18.10;100.00;99993.41;4956253;28;20761;-76
2023/09/19 03:05:11;;;;;;;1.83;0.90;;;;;;;18.10;100.00;99993.41;4956939;28;20294;-76
2023/09/19 03:07:38;;;;;;;1.67;1.10;;;;;;;18.07;100.00;99984.84;4953566;28;20211;-77
2023/09/19 03:10:05;;;;;;;2.17;1.00;;;;;;;18.05;100.00;99986.69;4960849;28;20233;-77
2023/09/19 03:12:31;;;;;;;1.40;1.10;;;;;;;18.04;100.00;99984.97;4960033;28;20836;-76
2023/09/19 03:14:57;;;;;;;2.00;1.20;;;;;;;18.02;100.00;99998.13;4961101;28;20217;-76
2023/09/19 03:17:22;;;;;;;2.27;1.40;;;;;;;18.00;100.00;99997.34;4961152;28;20244;-75
2023/09/19 03:19:48;;;;;;;1.47;1.37;;;;;;;18.00;100.00;99996.50;4958253;28;20284;-76
2023/09/19 03:22:14;;;;;;;2.80;1.20;;;;;;;17.97;100.00;100000.09;4965046;28;20225;-77
2023/09/19 03:24:39;;;;;;;1.87;1.10;;;;;;;17.92;100.00;99995.03;4959290;28;20203;-76
2023/09/19 03:27:05;;;;;;;1.90;1.10;;;;;;;17.90;100.00;99991.66;4964168;28;20197;-76
2023/09/19 03:29:30;;;;;;;3.07;1.20;;;;;;;17.85;100.00;99984.94;4958084;28;20280;-77
2023/09/19 03:31:55;;;;;;;1.80;1.47;;;;;;;17.78;100.00;99989.56;4964140;28;20202;-77
2023/09/19 03:34:21;;;;;;;3.03;1.23;;;;;;;17.74;100.00;99988.00;4961327;28;20580;-76
2023/09/19 03:36:46;;;;;;;2.97;1.30;;;;;;;17.68;100.00;99982.13;4955544;28;20216;-77
2023/09/19 03:39:14;;;;;;;3.57;1.50;;;;;;;17.65;100.00;99989.25;4961570;28;20926;-77
2023/09/19 03:41:40;;;;;;;2.87;1.30;;;;;;;17.63;100.00;99988.47;4961255;28;20225;-77
2023/09/19 03:44:05;;;;;;;1.87;1.37;;;;;;;17.61;100.00;99985.06;4967001;28;20206;-77
2023/09/19 03:46:32;;;;;;;2.77;1.40;;;;;;;17.57;100.00;99991.34;4964260;28;20216;-77
2023/09/19 03:48:57;;;;;;;1.53;1.10;;;;;;;17.54;100.00;99981.88;4966840;28;20216;-76
2023/09/19 03:51:22;;;;;;;2.03;1.40;;;;;;;17.51;100.00;99990.69;4964192;28;20295;-76
2023/09/19 03:53:49;;;;;;;2.33;1.50;;;;;;;17.46;100.00;99990.03;4965831;28;20197;-77
2023/09/19 03:56:14;;;;;;;1.87;1.43;;;;;;;17.47;100.00;99996.13;4963031;28;20268;-78
2023/09/19 03:58:40;;;;;;;2.27;1.33;;;;;;;17.42;100.00;99996.31;4990257;28;20181;-78
2023/09/19 04:01:06;;;;;;;2.40;1.70;;;;;;;17.44;100.00;100001.50;4972176;28;20210;-77
2023/09/19 04:03:46;;;;;;;2.13;1.40;;;;;;;17.40;100.00;99998.13;4963343;28;20206;-77
2023/09/19 04:06:15;;;;;;;3.27;1.47;;;;;;;17.41;100.00;100009.47;4959181;28;20216;-77
2023/09/19 04:08:41;;;;;;;2.87;1.87;;;;;;;17.41;100.00;100006.84;4961063;28;20202;-76
2023/09/19 04:11:06;;;;;;;2.07;1.57;;;;;;;17.40;100.00;100015.59;4960061;28;20195;-77
2023/09/19 04:13:32;;;;;;;1.97;1.70;;;;;;;17.37;100.00;100006.97;4963185;28;20347;-77
2023/09/19 04:15:57;;;;;;;2.53;1.30;;;;;;;17.36;100.00;100010.50;4961957;28;20235;-76
2023/09/19 04:18:23;;;;;;;2.83;1.70;;;;;;;17.37;100.00;100022.66;4962323;28;20198;-76
2023/09/19 04:20:52;;;;;;;2.83;1.43;;;;;;;17.36;100.00;100020.97;4961607;28;20209;-76
2023/09/19 04:23:21;;;;;;;1.53;1.37;;;;;;;17.36;100.00;100034.03;4961798;28;20595;-77
2023/09/19 04:25:46;;;;;;;4.13;1.50;;;;;;;17.37;100.00;100042.75;4960132;28;20224;-79
2023/09/19 04:28:12;;;;;;;2.90;1.67;;;;;;;17.39;100.00;100047.91;4959611;28;20191;-78
2023/09/19 04:30:40;;;;;;;4.23;1.90;;;;;;;17.37;100.00;100034.91;4954579;28;20194;-77
2023/09/19 04:33:06;;;;;;;2.57;1.63;;;;;;;17.34;100.00;100046.31;4955680;28;20197;-77
2023/09/19 04:35:32;;;;;;;3.17;1.60;;;;;;;17.32;100.00;100048.16;4955607;28;20230;-79
2023/09/19 04:37:57;;;;;;;2.20;2.00;;;;;;;17.31;100.00;100051.69;4961319;28;20191;-77
2023/09/19 04:40:24;;;;;;;2.60;1.60;;;;;;;17.30;100.00;100055.22;4969707;28;20215;-78
2023/09/19 04:42:59;;;;;;;2.07;1.60;;;;;;;17.28;100.00;100059.66;4959054;28;20276;-77
2023/09/19 04:45:26;;;;;;;2.07;1.80;;;;;;;17.26;100.00;100051.03;4964108;28;20215;-77
2023/09/19 04:47:51;;;;;;;5.03;2.23;;;;;;;17.26;100.00;100056.25;4961755;28;20192;-77
2023/09/19 04:50:17;;;;;;;3.03;1.77;;;;;;;17.23;100.00;100056.38;4961443;28;20189;-77
2023/09/19 04:52:44;;;;;;;2.37;1.80;;;;;;;17.22;100.00;100057.28;4958273;28;22490;-78
2023/09/19 04:55:16;;;;;;;3.90;1.90;;;;;;;17.22;100.00;100067.75;4964013;28;20235;-77
2023/09/19 04:57:49;;;;;;;2.50;1.70;;;;;;;17.20;100.00;100062.59;4965647;28;20948;-77
2023/09/19 05:00:19;;;;;;;2.43;1.93;;;;;;;17.19;100.00;100058.28;4957753;28;20229;-77
2023/09/19 05:02:49;;;;;;;2.93;1.63;;;;;;;17.16;100.00;100073.25;4958364;28;20209;-77
2023/09/19 05:05:16;;;;;;;2.47;1.90;;;;;;;17.14;100.00;100081.13;4970140;28;21770;-77
2023/09/19 05:07:42;;;;;;;3.03;2.13;;;;;;;17.13;100.00;100086.44;4962867;28;20238;-78
2023/09/19 05:10:08;;;;;;;3.07;2.00;;;;;;;17.10;100.00;100079.53;4960447;28;20671;-77
2023/09/19 05:12:37;;;;;;;4.17;2.20;;;;;;;17.04;100.00;100088.47;4958863;28;20311;-78
2023/09/19 05:15:09;;;;;;;3.17;2.03;;;;;;;17.01;100.00;100086.00;4962480;28;20221;-78
2023/09/19 05:17:35;;;;;;;2.83;1.60;;;;;;;16.96;100.00;100097.53;4962091;28;20192;-77
2023/09/19 05:20:14;;;;;;;3.37;2.13;;;;;;;16.95;100.00;100103.66;4952299;28;20196;-76
2023/09/19 05:22:40;;;;;;;3.00;1.80;;;;;;;16.93;100.00;100106.31;4962323;28;20694;-77
2023/09/19 05:25:06;;;;;;;3.53;1.90;;;;;;;16.92;100.00;100115.06;4958918;28;20212;-77
2023/09/19 05:27:33;;;;;;;3.07;2.10;;;;;;;16.92;100.00;100112.44;4955325;28;20295;-77
2023/09/19 05:29:59;;;;;;;2.53;1.97;;;;;;;16.91;100.00;100116.84;4955535;28;20200;-77
2023/09/19 05:32:24;;;;;;;3.00;2.17;;;;;;;16.93;100.00;100114.16;4961198;28;20194;-77
2023/09/19 05:34:52;;;;;;;2.67;2.00;;;;;;;16.92;100.00;100120.28;4962474;28;20223;-77
2023/09/19 05:37:18;;;;;;;3.03;1.87;;;;;;;16.92;100.00;100118.56;4967408;28;20190;-78
2023/09/19 05:39:43;;;;;;;1.73;1.63;;;;;;;16.90;100.00;100119.50;4965595;28;20621;-77
2023/09/19 05:42:09;;;;;;;2.93;1.80;;;;;;;16.94;100.00;100131.56;4968218;28;20223;-79
2023/09/19 05:44:35;;;;;;;3.13;2.20;;;;;;;16.94;100.00;100128.94;4966596;28;20191;-78
2023/09/19 05:47:02;;;;;;;3.00;1.90;;;;;;;16.95;100.00;100133.28;4958295;28;20201;-78
2023/09/19 05:49:28;;;;;;;2.07;1.80;;;;;;;16.97;100.00;100138.44;4967292;28;20285;-78
2023/09/19 05:51:55;;;;;;;3.37;2.53;;;;;;;17.01;100.00;100140.03;4984466;28;20637;-78
2023/09/19 05:54:20;;;;;;;2.60;1.77;;;;;;;17.02;100.00;100141.75;4969001;28;20207;-77
2023/09/19 05:56:46;;;;;;;2.47;2.00;;;;;;;17.08;100.00;100145.88;4964573;28;21039;-77
2023/09/19 05:59:13;;;;;;;3.10;2.00;;;;;;;17.10;100.00;100149.28;4961064;28;20195;-78
2023/09/19 06:01:39;;;;;;;2.80;2.10;;;;;;;17.13;100.00;100147.41;4959423;28;20214;-77
2023/09/19 06:04:04;;;;;;;3.10;1.87;;;;;;;17.17;100.00;100149.00;4961013;28;20273;-78
2023/09/19 06:06:30;;;;;;;3.10;1.90;;;;;;;17.21;100.00;100153.22;4964966;28;20213;-77
2023/09/19 06:08:55;;;;;;;2.17;1.87;;;;;;;17.27;100.00;100157.34;4966485;28;20258;-77
2023/09/19 06:11:23;;;;;;;3.00;2.00;;;;;;;17.29;100.00;100152.91;4964808;28;20307;-78
2023/09/19 06:13:48;;;;;;;3.77;2.10;;;;;;;17.33;100.00;100158.88;4964709;28;20202;-77
2023/09/19 06:16:14;;;;;;;4.37;2.43;;;;;;;17.33;100.00;100158.88;4963396;28;20256;-77
2023/09/19 06:18:39;;;;;;;4.23;2.40;;;;;;;17.31;100.00;100164.16;4966634;28;20669;-77
2023/09/19 06:21:07;;;;;;;3.10;2.07;;;;;;;17.32;100.00;100167.63;4967759;28;20731;-77
2023/09/19 06:23:34;;;;;;;2.97;2.50;;;;;;;17.33;100.00;100175.41;4966068;28;20569;-77
2023/09/19 06:25:59;;;;;;;3.10;2.07;;;;;;;17.33;100.00;100167.56;4974715;28;20207;-77
2023/09/19 06:28:27;;;;;;;4.57;2.20;;;;;;;17.33;100.00;100167.56;4960194;28;20344;-77
2023/09/19 06:30:53;;;;;;;3.07;2.10;;;;;;;17.32;100.00;100162.38;4973117;28;20195;-77
2023/09/19 06:33:21;;;;;;;2.30;2.10;;;;;;;17.34;100.00;100161.41;4963624;28;20208;-77
2023/09/19 06:35:47;;;;;;;3.93;1.83;;;;;;;17.38;100.00;100159.53;4963407;28;20216;-77
2023/09/19 06:38:13;;;;;;;4.70;2.10;;;;;;;17.41;100.00;100159.41;4964550;28;20212;-78
2023/09/19 06:40:39;;;;;;;2.93;2.10;;;;;;;17.44;100.00;100164.53;4960134;28;20249;-77
2023/09/19 06:43:05;;;;;;;3.33;1.90;;;;;;;17.47;100.00;100160.94;4964579;28;20193;-76
2023/09/19 06:45:31;;;;;;;3.93;2.30;;;;;;;17.52;100.00;100164.22;4965115;28;20705;-77
2023/09/19 06:47:57;;;;;;;2.57;1.90;;;;;;;17.61;100.00;100169.09;4968348;28;20714;-77
2023/09/19 06:50:23;;;;;;;4.17;2.33;;;;;;;17.70;100.00;100174.84;4970028;28;20266;-78
2023/09/19 06:52:53;;;;;;;3.30;2.67;;;;;;;17.77;100.00;100171.94;4961397;28;20202;-77
2023/09/19 06:55:20;;;;;;;4.13;3.00;;;;;;;17.85;100.00;100178.63;4961316;28;20296;-77
2023/09/19 06:57:47;;;;;;;5.70;3.60;;;;;;;17.96;100.00;100181.66;4967053;28;20583;-76
2023/09/19 07:00:21;;;;;;;4.20;2.57;;;;;;;18.09;100.00;100176.75;4964805;28;20186;-75
2023/09/19 07:03:01;;;;;;;3.87;2.30;;;;;;;18.28;100.00;100182.94;4962460;28;20197;-77
2023/09/19 07:05:42;;;;;;;3.33;2.40;;;;;;;18.44;100.00;100190.13;4963400;28;20285;-77
2023/09/19 07:08:12;;;;;;;4.57;2.30;;;;;;;18.67;100.00;100185.66;4962754;28;20265;-77
2023/09/19 07:10:40;;;;;;;3.53;1.93;;;;;;;18.89;100.00;100183.78;4964448;28;20190;-76
2023/09/19 07:13:10;;;;;;;2.93;2.13;;;;;;;19.12;100.00;100181.03;4964861;28;20195;-76
2023/09/19 07:15:39;;;;;;;3.10;2.30;;;;;;;19.45;100.00;100183.84;4964931;28;20214;-76
2023/09/19 07:18:05;;;;;;;4.57;1.80;;;;;;;19.79;100.00;100184.00;4958171;28;20194;-77
2023/09/19 07:20:32;;;;;;;2.43;1.77;;;;;;;19.94;100.00;100183.28;4959860;28;20214;-77
2023/09/19 07:23:01;;;;;;;3.27;1.80;;;;;;;20.25;100.00;100180.88;4970661;28;20224;-77
2023/09/19 07:25:27;;;;;;;3.73;1.90;;;;;;;20.49;100.00;100188.44;4962390;28;20224;-77
2023/09/19 07:27:55;;;;;;;1.97;1.50;;;;;;;20.58;100.00;100192.31;4959559;28;20213;-77
2023/09/19 07:30:21;;;;;;;2.80;1.77;;;;;;;20.64;100.00;100195.50;4961396;28;20284;-76
2023/09/19 07:32:46;;;;;;;2.93;1.60;;;;;;;20.71;100.00;100198.66;4966557;28;20280;-77
2023/09/19 07:35:12;;;;;;;3.37;2.73;;;;;;;20.80;100.00;100198.19;4962239;28;20233;-77
2023/09/19 07:37:37;;;;;;;4.83;2.57;;;;;;;20.88;100.00;100200.41;4969121;28;20285;-78
2023/09/19 07:40:12;;;;;;;4.97;2.47;;;;;;;21.02;100.00;100205.78;4965256;28;20194;-77
2023/09/19 07:42:40;;;;;;;2.47;1.53;;;;;;;21.25;100.00;100206.28;4982317;28;20209;-77
2023/09/19 07:45:07;;;;;;;2.57;1.60;;;;;;;21.28;100.00;100202.66;4969617;28;20297;-76
2023/09/19 07:47:33;;;;;;;2.47;1.57;;;;;;;21.34;100.00;100204.09;4962860;28;20199;-79
2023/09/19 07:50:01;;;;;;;3.60;1.50;;;;;;;21.36;100.00;100207.50;4983175;28;20647;-78
2023/09/19 07:52:27;;;;;;;1.73;1.20;;;;;;;21.23;100.00;100215.22;4965956;28;20194;-77
2023/09/19 07:54:53;;;;;;;2.40;1.40;;;;;;;21.25;100.00;100210.72;4958176;28;20276;-77
2023/09/19 07:57:19;;;;;;;2.27;0.97;;;;;;;21.16;100.00;100214.72;4966076;28;20535;-77
2023/09/19 07:59:45;;;;;;;2.47;1.10;;;;;;;21.13;100.00;100228.03;4955165;28;20187;-78
2023/09/19 08:02:15;;;;;;;1.40;1.13;;;;;;;21.15;100.00;100224.41;4968526;28;20221;-79
2023/09/19 08:04:42;;;;;;;2.83;1.20;;;;;;;21.10;100.00;100228.22;4968360;28;20280;-77
2023/09/19 08:07:08;;;;;;;1.77;1.00;;;;;;;21.16;100.00;100227.88;4968272;28;20194;-77
2023/09/19 08:09:34;;;;;;;1.87;1.10;;;;;;;21.11;100.00;100238.66;4962054;28;20197;-78
2023/09/19 08:12:02;;;;;;;1.57;1.00;;;;;;;21.16;100.00;100233.13;4969637;28;20188;-77
2023/09/19 08:14:29;;;;;;;2.50;1.40;;;;;;;21.18;100.00;100231.28;4963394;28;20189;-77
2023/09/19 08:16:57;;;;;;;1.57;1.13;;;;;;;21.19;100.00;100232.09;4957535;28;20721;-77
2023/09/19 08:19:23;;;;;;;1.93;1.30;;;;;;;21.27;100.00;100224.66;4965453;28;20860;-76
2023/09/19 08:21:48;;;;;;;2.97;1.17;;;;;;;21.36;100.00;100233.84;4965258;28;20224;-77
2023/09/19 08:24:14;;;;;;;3.20;1.23;;;;;;;21.47;100.00;100242.84;4972706;28;20182;-77
2023/09/19 08:26:40;;;;;;;5.63;1.47;;;;;;;21.48;100.00;100241.88;4965938;28;20213;-77
2023/09/19 08:29:06;;;;;;;2.67;1.67;;;;;;;21.52;100.00;100241.72;4964384;28;20194;-78
2023/09/19 08:31:32;;;;;;;3.73;1.27;;;;;;;21.47;100.00;100234.06;4968391;28;20185;-77
2023/09/19 08:33:59;;;;;;;3.63;1.20;;;;;;;21.41;100.00;100235.28;4956966;28;20199;-78
2023/09/19 08:36:25;;;;;;;3.67;1.60;;;;;;;21.47;100.00;100236.72;4963778;28;20218;-77
2023/09/19 08:38:50;;;;;;;2.20;1.10;;;;;;;21.51;100.00;100245.28;4960701;28;20240;-77
2023/09/19 08:41:17;;;;;;;2.30;1.50;;;;;;;21.62;100.00;100243.78;4968771;28;20213;-78
2023/09/19 08:43:43;;;;;;;1.40;1.20;;;;;;;21.73;100.00;100243.19;4963614;28;20193;-77
2023/09/19 08:46:16;;;;;;;1.63;1.40;;;;;;;22.00;99.22;100244.34;4964252;28;20210;-77
2023/09/19 08:48:52;;;;;;;3.00;1.40;;;;;;;22.18;97.82;100240.63;4963720;28;20574;-78
2023/09/19 08:51:33;;;;;;;2.30;1.33;;;;;;;22.43;96.55;100235.72;4963992;28;20260;-78
2023/09/19 08:54:06;;;;;;;1.63;1.07;;;;;;;22.50;93.88;100240.53;4965724;28;20186;-77
2023/09/19 08:56:32;;;;;;;1.93;1.07;;;;;;;22.44;94.15;100240.91;4968397;28;21001;-78
2023/09/19 08:59:03;;;;;;;1.57;1.00;;;;;;;22.43;93.29;100246.25;4968271;28;20272;-77
2023/09/19 09:01:32;;;;;;;1.70;1.10;;;;;;;22.36;93.07;100240.47;4968264;28;20205;-78
2023/09/19 09:03:58;;;;;;;1.57;1.10;;;;;;;22.31;93.95;100245.19;4960163;28;20277;-77
2023/09/19 09:06:24;;;;;;;8.73;1.43;;;;;;;22.12;91.24;100242.75;4971794;28;20296;-76
2023/09/19 09:08:54;;;;;;;2.77;1.10;;;;;;;22.09;92.32;100254.34;4967034;28;20198;-78
2023/09/19 09:11:20;;;;;;;1.70;0.90;;;;;;;22.01;93.09;100248.66;4967345;28;20182;-76
2023/09/19 09:13:47;;;;;;;1.10;0.80;;;;;;;21.84;93.30;100247.84;4966289;28;20211;-76
2023/09/19 09:16:17;;;;;;;1.40;0.90;;;;;;;21.73;92.70;100245.81;4966948;28;20232;-76
2023/09/19 09:18:44;;;;;;;2.20;1.13;;;;;;;21.46;89.56;100249.03;4958944;28;20613;-76
2023/09/19 09:21:09;;;;;;;2.00;1.00;;;;;;;21.24;89.05;100248.50;4960756;28;20554;-78
2023/09/19 09:23:35;;;;;;;1.57;1.00;;;;;;;21.24;90.95;100254.63;4950234;28;20213;-77
2023/09/19 09:26:02;;;;;;;2.30;0.83;;;;;;;21.29;92.09;100246.47;4966667;28;20219;-78
2023/09/19 09:28:30;;;;;;;1.00;0.87;;;;;;;21.36;91.62;100234.66;4970939;28;20194;-76
2023/09/19 09:30:57;;;;;;;2.03;1.20;;;;;;;21.53;90.66;100239.03;4966044;28;22796;-78
2023/09/19 09:33:24;;;;;;;3.77;1.20;;;;;;;21.74;89.63;100237.00;4964565;28;20181;-78
2023/09/19 09:36:02;;;;;;;2.20;1.10;;;;;;;22.10;90.40;100236.72;4960854;28;20745;-78
2023/09/19 09:38:45;;;;;;;2.33;1.20;;;;;;;22.50;89.75;100239.69;4970582;28;20593;-78
2023/09/19 09:41:15;;;;;;;1.83;0.93;;;;;;;22.77;86.68;100241.59;4966620;28;20698;-79
2023/09/19 09:43:46;;;;;;;1.53;1.00;;;;;;;22.59;83.65;100241.78;4963374;28;20285;-79
2023/09/19 09:49:11;;;;;;;1.33;1.07;;;;;;;22.64;85.32;100246.75;4996437;28;20192;-77
2023/09/19 09:51:33;;;;;;;1.87;0.90;;;;;;;22.69;84.78;100244.72;4966514;28;20198;-76
2023/09/19 09:54:21;;;;;;;1.97;1.10;;;;;;;22.58;85.92;100247.16;4966568;28;20580;-77
2023/09/19 09:59:46;;;;;;;2.00;1.00;;;;;;;22.12;86.31;100242.75;4971791;28;20388;-78
2023/09/19 10:02:13;;;;;;;1.63;0.90;;;;;;;21.96;87.18;100246.28;4968546;28;20273;-78
2023/09/19 10:04:51;;;;;;;1.40;0.80;;;;;;;21.91;87.37;100241.28;4972380;28;20577;-77
2023/09/19 10:07:38;;;;;;;1.50;0.90;;;;;;;21.70;85.80;100246.00;4962884;28;20201;-76
2023/09/19 10:10:15;;;;;;;2.10;1.00;;;;;;;21.77;86.86;100243.84;4966121;28;20563;-78
2023/09/19 10:12:47;;;;;;;2.23;1.10;;;;;;;21.89;86.91;100245.78;4964379;28;20668;-77
2023/09/19 10:15:15;;;;;;;2.13;1.20;;;;;;;21.98;86.00;100248.84;4967469;28;20837;-76
2023/09/19 10:17:43;;;;;;;2.10;1.23;;;;;;;22.07;86.24;100251.81;4961153;28;20218;-78
2023/09/19 10:20:35;;;;;;;1.60;1.10;;;;;;;22.19;86.66;100244.94;4961463;28;20190;-76
2023/09/19 10:23:12;;;;;;;1.40;1.00;;;;;;;22.28;84.62;100253.28;4972813;28;20764;-77
2023/09/19 10:25:42;;;;;;;2.43;1.37;;;;;;;22.35;83.24;100257.22;4970984;28;20334;-77
2023/09/19 10:28:10;;;;;;;3.00;1.60;;;;;;;22.52;82.95;100253.66;4963970;28;20191;-77
2023/09/19 10:30:47;;;;;;;3.03;1.23;;;;;;;22.66;80.66;100245.75;4971646;28;20194;-79
2023/09/19 10:33:15;;;;;;;3.50;1.27;;;;;;;22.65;80.40;100245.81;4967658;28;20186;-77
2023/09/19 10:35:47;;;;;;;1.30;1.00;;;;;;;22.78;79.81;100248.59;4960473;28;20209;-77
2023/09/19 10:38:16;;;;;;;2.80;1.30;;;;;;;22.96;79.02;100246.59;4965991;28;20245;-79
2023/09/19 10:40:45;;;;;;;2.33;1.10;;;;;;;23.03;78.84;100244.44;4967381;28;20268;-77
2023/09/19 10:43:18;;;;;;;2.30;1.10;;;;;;;23.18;78.15;100240.00;4966288;28;20269;-77
2023/09/19 10:45:46;;;;;;;2.23;1.30;;;;;;;23.35;78.18;100234.53;4971078;28;20324;-80
2023/09/19 10:48:12;;;;;;;2.20;1.30;;;;;;;23.44;77.87;100238.38;4956857;28;20199;-78
2023/09/19 10:50:46;;;;;;;2.50;1.40;;;;;;;23.65;77.67;100236.16;4967427;28;20215;-79
2023/09/19 10:53:12;;;;;;;1.77;1.07;;;;;;;23.87;76.32;100240.00;4968679;28;20242;-77
2023/09/19 10:55:39;;;;;;;1.87;1.10;;;;;;;24.17;76.10;100236.31;4969521;28;20213;-79
2023/09/19 10:58:15;;;;;;;1.77;1.30;;;;;;;24.22;75.90;100231.56;4969342;28;20654;-78
2023/09/19 11:00:51;;;;;;;2.27;1.33;;;;;;;24.15;75.84;100233.78;4968781;28;20213;-80
2023/09/19 11:03:37;;;;;;;3.63;1.60;;;;;;;24.12;75.05;100235.81;4964095;28;20628;-77
2023/09/19 11:06:13;;;;;;;3.00;1.30;;;;;;;24.22;74.97;100234.22;4970264;28;20224;-78
2023/09/19 11:08:51;;;;;;;1.90;1.20;;;;;;;24.24;74.77;100229.69;4972066;28;20752;-79
2023/09/19 11:11:39;;;;;;;2.23;1.20;;;;;;;24.23;74.60;100230.63;4970514;28;20236;-78
2023/09/19 11:14:20;;;;;;;2.33;1.30;;;;;;;24.17;74.60;100231.91;4966589;28;20212;-77
2023/09/19 11:17:07;;;;;;;2.57;1.40;;;;;;;24.20;75.20;100229.00;4964949;28;20248;-78
2023/09/19 11:23:17;;;;;;;3.30;1.30;;;;;;;23.99;75.49;100223.38;4965585;28;20209;-79
2023/09/19 11:25:50;;;;;;;2.80;1.40;;;;;;;23.74;75.99;100221.50;4959754;28;20642;-78
2023/09/19 11:28:28;;;;;;;3.00;1.50;;;;;;;23.79;76.17;100226.47;4963646;28;20267;-78
2023/09/19 11:30:54;;;;;;;1.40;1.07;;;;;;;23.71;75.82;100222.53;4980514;28;20185;-77
2023/09/19 11:33:23;;;;;;;3.57;1.10;;;;;;;23.80;75.96;100217.59;4963650;28;20206;-77
2023/09/19 11:36:24;;;;;;;2.13;1.37;;;;;;;23.80;76.22;100207.88;4957463;28;20265;-77
2023/09/19 11:38:49;;;;;;;4.67;1.40;;;;;;;23.75;75.25;100213.47;4957348;28;20194;-78
2023/09/19 11:41:28;;;;;;;2.30;1.30;;;;;;;23.79;75.10;100200.88;4968052;28;20714;-79